createdAt,value
2019-06-07T00:00:39.840Z,1.9
2019-06-07T00:05:20.171Z,1.2
2019-06-07T00:10:37.309Z,1.9
2019-06-07T00:15:29.319Z,0.7
2019-06-07T00:20:23.970Z,1.9
2019-06-07T00:25:24.590Z,2
2019-06-07T00:30:45.597Z,1.8
2019-06-07T00:35:31.897Z,1.4
2019-06-07T00:40:32.159Z,1.8
2019-06-07T00:45:23.907Z,1.5
2019-06-07T00:50:24.969Z,1.2
2019-06-07T00:55:22.696Z,1.7
2019-06-07T01:00:26.645Z,1.6
2019-06-07T01:05:31.239Z,1.9
2019-06-07T01:10:54.385Z,1.9
2019-06-07T01:15:29.317Z,1.9
2019-06-07T01:20:27.599Z,0.7
2019-06-07T01:25:33.677Z,1.9
2019-06-07T01:30:26.355Z,0.8
2019-06-07T01:35:21.694Z,1.7
2019-06-07T01:40:32.660Z,1.8
2019-06-07T01:45:25.864Z,3.1
2019-06-07T01:50:25.288Z,1.8
2019-06-07T01:55:23.511Z,1.7
2019-06-07T02:00:17.684Z,1.4
2019-06-07T02:05:26.506Z,1.5
2019-06-07T02:10:19.639Z,0.7
2019-06-07T02:15:21.627Z,1.8
2019-06-07T02:20:17.665Z,0.9
2019-06-07T02:25:47.085Z,1.9
2019-06-07T02:30:58.174Z,0.4
2019-06-07T02:35:33.261Z,2
2019-06-07T02:40:24.498Z,1.8
2019-06-07T02:45:19.450Z,2.6
2019-06-07T02:50:25.580Z,1.8
2019-06-07T02:55:17.365Z,1.9
2019-06-07T03:05:22.980Z,1.7
2019-06-07T03:10:17.368Z,2
2019-06-07T03:15:47.947Z,1.4
2019-06-07T03:20:17.570Z,1.9
2019-06-07T03:25:17.615Z,1.9
2019-06-07T03:30:57.753Z,2.4
2019-06-07T03:35:40.612Z,0.9
2019-06-07T03:40:17.887Z,1.8
2019-06-07T03:45:23.385Z,2
2019-06-07T03:50:32.260Z,2
2019-06-07T03:55:17.855Z,1.1
2019-06-07T04:00:18.061Z,2.2
2019-06-07T04:05:18.083Z,1
2019-06-07T04:10:59.440Z,1.8
2019-06-07T04:15:28.157Z,2
2019-06-07T04:20:18.682Z,2
2019-06-07T04:25:18.281Z,1.9
2019-06-07T04:30:31.757Z,0.8
2019-06-07T04:35:17.595Z,1.8
2019-06-07T04:40:33.793Z,2
2019-06-07T04:45:45.651Z,1.2
2019-06-07T04:50:22.843Z,1.9
2019-06-07T04:55:18.023Z,0.5
2019-06-07T05:00:53.066Z,1.9
2019-06-07T05:05:34.251Z,1.3
2019-06-07T05:10:17.966Z,2
2019-06-07T05:15:18.085Z,2.4
2019-06-07T05:20:19.585Z,2
2019-06-07T05:25:25.434Z,2.2
2019-06-07T05:31:05.475Z,2
2019-06-07T05:35:17.922Z,2.3
2019-06-07T05:40:34.782Z,2.1
2019-06-07T05:45:27.393Z,1.7
2019-06-07T05:50:49.778Z,1.9
2019-06-07T05:55:32.746Z,1.3
2019-06-07T06:00:35.034Z,1.7
2019-06-07T06:05:38.172Z,0.9
2019-06-07T06:10:25.712Z,1.8
2019-06-07T06:16:01.903Z,0.3
2019-06-07T06:21:04.253Z,1.6
2019-06-07T06:25:34.339Z,0.8
2019-06-07T06:30:32.119Z,1.4
2019-06-07T06:35:49.270Z,1.2
2019-06-07T06:40:21.240Z,1.6
2019-06-07T06:50:19.389Z,1.4
2019-06-07T06:55:39.071Z,1.4
2019-06-07T07:01:06.281Z,1.2
2019-06-07T07:05:35.119Z,0.2
2019-06-07T07:10:48.795Z,1.6
2019-06-07T07:16:14.209Z,1.3
2019-06-07T07:20:38.674Z,1.5
2019-06-07T07:25:36.280Z,0.8
2019-06-07T07:41:13.702Z,1.5
2019-06-07T07:45:31.722Z,1.4
2019-06-07T07:51:59.013Z,1.3
2019-06-07T07:55:27.494Z,0.8
2019-06-07T08:01:09.961Z,1.4
2019-06-07T08:10:23.349Z,1.2
2019-06-07T08:15:48.137Z,1.1
2019-06-07T08:20:39.562Z,1.4
2019-06-07T08:25:33.845Z,1.2
2019-06-07T08:30:47.720Z,0.7
2019-06-07T08:36:19.120Z,1.3
2019-06-07T08:40:23.109Z,1.4
2019-06-07T08:45:23.309Z,1
2019-06-07T08:50:20.555Z,1.5
2019-06-07T08:55:35.111Z,1.3
2019-06-07T09:00:47.826Z,1.5
2019-06-07T09:05:28.336Z,1.3
2019-06-07T09:10:26.679Z,1.7
2019-06-07T09:15:25.245Z,1.1
2019-06-07T09:20:44.042Z,1.3
2019-06-07T09:25:22.938Z,1.3
2019-06-07T09:30:35.810Z,0.8
2019-06-07T09:35:33.682Z,2
2019-06-07T09:40:29.370Z,1.3
2019-06-07T09:45:28.699Z,0.6
2019-06-07T09:50:46.223Z,1.9
2019-06-07T09:55:45.319Z,0.9
2019-06-07T10:00:41.167Z,1.4
2019-06-07T10:05:37.609Z,0.7
2019-06-07T10:10:51.950Z,0.5
2019-06-07T10:15:24.171Z,1
2019-06-07T10:20:17.328Z,0.8
2019-06-07T10:25:20.480Z,0.6
2019-06-07T10:30:37.690Z,0.7
2019-06-07T10:35:18.323Z,0.5
2019-06-07T10:40:28.749Z,0.2
2019-06-07T10:45:18.523Z,0.5
2019-06-07T10:50:18.089Z,0.6
2019-06-07T10:55:37.589Z,0.8
2019-06-07T11:00:32.201Z,0.4
2019-06-07T11:05:23.950Z,0.7
2019-06-07T11:10:22.191Z,0.5
2019-06-07T11:15:35.560Z,0.7
2019-06-07T11:20:38.948Z,0.7
2019-06-07T11:25:22.308Z,0.4
2019-06-07T11:30:18.685Z,0.5
2019-06-07T11:35:19.159Z,0.4
2019-06-07T11:40:35.767Z,0.4
2019-06-07T11:45:18.709Z,1.4
2019-06-07T11:50:18.179Z,0.6
2019-06-07T11:55:20.391Z,1.1
2019-06-07T12:00:34.132Z,0.7
2019-06-07T12:05:23.959Z,1.6
2019-06-07T12:10:23.059Z,0.6
2019-06-07T12:15:34.158Z,0.4
2019-06-07T12:20:24.528Z,0.3
2019-06-07T12:25:25.353Z,0.2
2019-06-07T12:30:31.338Z,0.3
2019-06-07T12:35:19.940Z,0.4
2019-06-07T12:40:33.862Z,0.3
2019-06-07T12:45:45.128Z,0.5
2019-06-07T12:50:42.393Z,0.5
2019-06-07T12:55:25.822Z,1.2
2019-06-07T13:00:20.537Z,0.8
2019-06-07T13:05:28.311Z,0.8
2019-06-07T13:10:19.588Z,0.4
2019-06-07T13:15:32.429Z,0.8
2019-06-07T13:20:20.260Z,0.4
2019-06-07T13:25:18.679Z,0.4
2019-06-07T13:30:21.068Z,0.8
2019-06-07T13:35:34.998Z,0.4
2019-06-07T13:40:21.168Z,0.4
2019-06-07T13:45:30.992Z,0.3
2019-06-07T13:50:19.588Z,0.2
2019-06-07T13:55:33.861Z,0.7
2019-06-07T14:00:48.862Z,0.5
2019-06-07T14:05:20.798Z,0.1
2019-06-07T14:10:43.981Z,0.7
2019-06-07T14:15:44.761Z,0.4
2019-06-07T14:20:30.879Z,0.6
2019-06-07T14:25:46.296Z,0.2
2019-06-07T14:30:39.957Z,0.5
2019-06-07T14:35:24.451Z,0.8
2019-06-07T14:42:25.325Z,0.4
2019-06-07T14:45:38.184Z,0.2
2019-06-07T14:50:28.143Z,0.4
2019-06-07T14:55:31.099Z,0.8
2019-06-07T15:00:42.087Z,0.3
2019-06-07T15:05:20.839Z,0.6
2019-06-07T15:10:17.438Z,0.9
2019-06-07T15:15:26.075Z,0.8
2019-06-07T15:20:18.528Z,0.8
2019-06-07T15:25:47.799Z,0.5
2019-06-07T15:30:45.010Z,0.4
2019-06-07T15:36:52.481Z,1.5
2019-06-07T15:40:17.627Z,1
2019-06-07T15:45:20.004Z,0.5
2019-06-07T15:50:40.415Z,1.4
2019-06-07T15:55:17.969Z,0.8
2019-06-07T16:00:18.703Z,1.4
2019-06-07T16:05:23.656Z,0.5
2019-06-07T16:10:23.234Z,0.4
2019-06-07T16:15:43.246Z,1.1
2019-06-07T16:25:24.723Z,0.8
2019-06-07T16:30:24.306Z,2.1
2019-06-07T16:35:20.687Z,0.7
2019-06-07T16:40:46.128Z,0.9
2019-06-07T16:51:47.489Z,1.9
2019-06-07T16:55:18.320Z,0.5
2019-06-07T17:01:10.606Z,1
2019-06-07T17:05:52.435Z,1.5
2019-06-07T17:10:36.150Z,0.9
2019-06-07T17:15:51.992Z,0.6
2019-06-07T17:26:14.598Z,0.9
2019-06-07T17:35:36.343Z,0.3
2019-06-07T17:40:20.041Z,0.4
2019-06-07T17:45:22.249Z,0.7
2019-06-07T17:50:31.719Z,0.8
2019-06-07T17:55:38.049Z,3.6
2019-06-07T18:00:58.669Z,0.2
2019-06-07T18:05:17.777Z,3
2019-06-07T18:10:28.507Z,1.8
2019-06-07T18:15:17.679Z,1
2019-06-07T18:20:23.030Z,0.3
2019-06-07T18:25:32.612Z,1.5
2019-06-07T18:30:22.766Z,1.3
2019-06-07T18:35:24.821Z,1.7
2019-06-07T18:40:22.440Z,0.7
2019-06-07T18:45:17.421Z,1.4
2019-06-07T18:50:17.551Z,1.5
2019-06-07T18:55:38.630Z,2.5
2019-06-07T19:00:17.729Z,2.4
2019-06-07T19:05:17.760Z,1.9
2019-06-07T19:10:17.780Z,0.5
2019-06-07T19:15:22.714Z,2.2
2019-06-07T19:20:16.780Z,1.1
2019-06-07T19:25:17.662Z,1.5
2019-06-07T19:30:17.554Z,1.4
2019-06-07T19:35:17.620Z,1.7
2019-06-07T19:40:17.940Z,1.2
2019-06-07T19:45:31.587Z,1.5
2019-06-07T19:50:17.665Z,2.9
2019-06-07T19:55:22.768Z,1.2
2019-06-07T20:00:27.760Z,1.5
2019-06-07T20:05:16.840Z,1.2
2019-06-07T20:10:18.100Z,1.7
2019-06-07T20:15:28.715Z,0.2
2019-06-07T20:20:17.458Z,1.4
2019-06-07T20:25:17.518Z,1
2019-06-07T20:30:17.409Z,1.1
2019-06-07T20:35:17.297Z,1.9
2019-06-07T20:40:24.977Z,0.9
2019-06-07T20:45:33.865Z,1.9
2019-06-07T20:50:17.147Z,1.6
2019-06-07T20:55:17.072Z,1.4
2019-06-07T21:00:22.596Z,1.1
2019-06-07T21:05:17.791Z,2.2
2019-06-07T21:10:16.811Z,2.6
2019-06-07T21:15:22.738Z,1.7
2019-06-07T21:20:21.848Z,1.7
2019-06-07T21:25:17.768Z,3.2
2019-06-07T21:30:17.660Z,2.3
2019-06-07T21:35:17.547Z,1.4
2019-06-07T21:40:17.739Z,2
2019-06-07T21:45:17.797Z,3.5
2019-06-07T21:50:17.696Z,2.7
2019-06-07T21:55:17.587Z,2.2
2019-06-07T22:00:17.480Z,3.1
2019-06-07T22:05:17.445Z,1.9
2019-06-07T22:10:17.456Z,3.1
2019-06-07T22:15:35.426Z,2.4
2019-06-07T22:20:17.367Z,3.6
2019-06-07T22:25:17.236Z,3.7
2019-06-07T22:30:17.099Z,3.2
2019-06-07T22:35:16.978Z,2.1
2019-06-07T22:40:22.087Z,3.8
2019-06-07T22:45:16.971Z,2.6
2019-06-07T22:50:16.901Z,2.7
2019-06-07T22:55:18.355Z,4.9
2019-06-07T23:00:21.020Z,4.8
2019-06-07T23:05:22.128Z,4.5
2019-06-07T23:10:17.790Z,4.7
2019-06-07T23:15:20.627Z,4.7
2019-06-07T23:20:19.766Z,6.1
2019-06-07T23:25:24.267Z,3.9
2019-06-07T23:30:18.925Z,3.4
2019-06-07T23:35:18.960Z,5.6
2019-06-07T23:40:17.637Z,5
2019-06-07T23:45:17.815Z,4.2
2019-06-07T23:50:17.959Z,5.2
2019-06-07T23:55:18.156Z,3.7
